createdAt,value
2023-05-02T04:15:18.389Z,10.80
2023-05-02T04:16:18.452Z,10.78
2023-05-02T04:17:18.609Z,10.77
2023-05-02T04:18:18.433Z,10.78
2023-05-02T04:19:18.326Z,10.80
2023-05-02T04:20:18.357Z,10.80
2023-05-02T04:21:18.318Z,10.81
2023-05-02T04:22:18.292Z,10.78
2023-05-02T04:23:18.282Z,10.80
2023-05-02T04:24:18.277Z,10.78
2023-05-02T04:25:18.263Z,10.78
2023-05-02T04:26:18.268Z,10.81
2023-05-02T04:27:18.223Z,10.78
2023-05-02T04:28:18.231Z,10.78
2023-05-02T04:29:18.221Z,10.77
2023-05-02T04:30:18.203Z,10.78
2023-05-02T04:31:18.287Z,10.78
2023-05-02T04:32:18.184Z,10.76
2023-05-02T04:33:18.153Z,10.74
2023-05-02T04:34:18.142Z,10.73
2023-05-02T04:35:18.123Z,10.76
2023-05-02T04:36:18.142Z,10.73
2023-05-02T04:37:18.096Z,10.73
2023-05-02T04:38:18.088Z,10.73
2023-05-02T04:39:18.060Z,10.73
2023-05-02T04:40:18.065Z,10.70
2023-05-02T04:41:18.048Z,10.68
2023-05-02T04:42:18.035Z,10.70
2023-05-02T04:43:18.008Z,10.73
2023-05-02T04:44:18.007Z,10.74
2023-05-02T04:45:17.980Z,10.74
2023-05-02T04:46:18.085Z,10.74
2023-05-02T04:47:17.986Z,10.68
2023-05-02T04:48:17.976Z,10.63
2023-05-02T04:49:17.930Z,10.58
2023-05-02T04:50:17.920Z,10.46
2023-05-02T04:51:17.925Z,10.46
2023-05-02T04:52:17.889Z,10.47
2023-05-02T04:53:17.879Z,10.43
2023-05-02T04:54:17.863Z,10.43
2023-05-02T04:55:17.859Z,10.43
2023-05-02T04:56:17.873Z,10.43
2023-05-02T04:57:17.825Z,10.44
2023-05-02T04:58:17.805Z,10.51
2023-05-02T04:59:17.811Z,10.43
2023-05-02T05:00:17.787Z,10.39
2023-05-02T05:01:17.815Z,10.40
2023-05-02T05:02:17.947Z,10.37
2023-05-02T05:03:17.888Z,10.36
2023-05-02T05:04:17.777Z,10.34
2023-05-02T05:05:17.734Z,10.28
2023-05-02T05:06:17.767Z,10.28
2023-05-02T05:07:17.700Z,10.30
2023-05-02T05:08:17.684Z,10.30
2023-05-02T05:09:17.667Z,10.30
2023-05-02T05:10:17.657Z,10.21
2023-05-02T05:11:17.668Z,10.19
2023-05-02T05:12:17.639Z,10.22
2023-05-02T05:13:17.616Z,10.22
2023-05-02T05:14:17.602Z,10.21
2023-05-02T05:15:17.597Z,10.18
2023-05-02T05:16:17.619Z,10.21
2023-05-02T05:17:17.574Z,10.24
2023-05-02T05:18:17.553Z,10.32
2023-05-02T05:19:17.551Z,10.32
2023-05-02T05:20:17.515Z,10.25
2023-05-02T05:21:17.524Z,10.21
2023-05-02T05:22:17.494Z,10.22
2023-05-02T05:23:17.478Z,10.25
2023-05-02T05:24:17.470Z,10.26
2023-05-02T05:25:17.464Z,10.28
2023-05-02T05:26:17.472Z,10.30
2023-05-02T05:27:17.436Z,10.28
2023-05-02T05:28:17.438Z,10.25
2023-05-02T05:29:17.405Z,10.30
2023-05-02T05:30:17.394Z,10.33
2023-05-02T05:31:17.435Z,10.34
2023-05-02T05:32:17.362Z,10.42
2023-05-02T05:33:17.427Z,10.43
2023-05-02T05:34:17.400Z,10.47
2023-05-02T05:35:17.322Z,10.44
2023-05-02T05:36:17.397Z,10.44
2023-05-02T05:37:17.295Z,10.52
2023-05-02T05:38:17.275Z,10.59
2023-05-02T05:39:17.271Z,10.65
2023-05-02T05:40:17.264Z,10.62
2023-05-02T05:41:17.258Z,10.65
2023-05-02T05:42:17.227Z,10.62
2023-05-02T05:43:17.215Z,10.56
2023-05-02T05:44:17.201Z,10.60
2023-05-02T05:45:17.306Z,10.58
2023-05-02T05:46:17.184Z,10.60
2023-05-02T05:47:17.244Z,10.62
2023-05-02T05:48:17.198Z,10.63
2023-05-02T05:49:17.137Z,10.63
2023-05-02T05:50:17.131Z,10.59
2023-05-02T05:51:17.145Z,10.58
2023-05-02T05:52:17.093Z,10.60
2023-05-02T05:53:17.081Z,10.59
2023-05-02T05:54:17.063Z,10.62
2023-05-02T05:55:17.055Z,10.53
2023-05-02T05:56:17.058Z,10.58
2023-05-02T05:57:17.032Z,10.60
2023-05-02T05:58:17.012Z,10.66
2023-05-02T05:59:17.001Z,10.65
2023-05-02T06:00:16.995Z,10.66
2023-05-02T06:01:17.002Z,10.66
2023-05-02T06:02:16.997Z,10.92
2023-05-02T06:03:17.049Z,11.01
2023-05-02T06:04:16.948Z,10.99
2023-05-02T06:05:16.925Z,11.02
2023-05-02T06:06:16.988Z,10.92
2023-05-02T06:07:16.899Z,10.83
2023-05-02T06:08:16.884Z,10.77
2023-05-02T06:09:16.876Z,10.73
2023-05-02T06:10:16.863Z,10.68
2023-05-02T06:11:16.875Z,10.66
2023-05-02T06:12:16.886Z,10.70
2023-05-02T06:13:16.828Z,10.73
2023-05-02T06:14:16.876Z,10.74
2023-05-02T06:15:16.820Z,10.71
2023-05-02T06:16:16.846Z,10.74
2023-05-02T06:17:16.773Z,10.73
2023-05-02T06:18:16.770Z,10.76
2023-05-02T06:19:16.742Z,10.63
2023-05-02T06:20:18.620Z,10.56
2023-05-02T06:21:16.728Z,10.52
2023-05-02T06:22:16.701Z,10.53
2023-05-02T06:23:16.692Z,10.58
2023-05-02T06:24:16.671Z,10.59
2023-05-02T06:25:16.674Z,10.51
2023-05-02T06:26:16.663Z,10.47
2023-05-02T06:27:16.636Z,10.46
2023-05-02T06:28:16.625Z,10.36
2023-05-02T06:29:16.613Z,10.12
2023-05-02T06:30:16.591Z,10.09
2023-05-02T06:31:16.659Z,10.04
2023-05-02T06:32:16.570Z,9.89
2023-05-02T06:33:16.609Z,9.81
2023-05-02T06:34:16.537Z,9.73
2023-05-02T06:35:16.538Z,9.70
2023-05-02T06:36:16.527Z,9.66
2023-05-02T06:37:16.504Z,9.58
2023-05-02T06:38:16.492Z,9.52
2023-05-02T06:39:16.479Z,9.48
2023-05-02T06:40:16.461Z,9.40
2023-05-02T06:41:18.133Z,9.39
2023-05-02T06:42:16.438Z,9.40
2023-05-02T06:43:16.433Z,9.32
2023-05-02T06:44:16.422Z,9.27
2023-05-02T06:45:16.413Z,9.31
2023-05-02T06:46:16.431Z,9.32
2023-05-02T06:47:16.436Z,9.23
2023-05-02T06:48:16.398Z,9.18
2023-05-02T06:49:16.356Z,9.10
2023-05-02T06:50:16.336Z,8.97
2023-05-02T06:51:16.354Z,8.97
2023-05-02T06:52:16.336Z,8.97
2023-05-02T06:53:16.303Z,8.93
2023-05-02T06:54:16.310Z,8.90
2023-05-02T06:55:16.279Z,8.87
2023-05-02T06:56:16.271Z,8.86
2023-05-02T06:57:16.274Z,8.86
2023-05-02T06:58:16.250Z,8.76
2023-05-02T06:59:16.219Z,8.72
2023-05-02T07:00:16.201Z,8.72
2023-05-02T07:01:16.384Z,8.69
2023-05-02T07:02:16.178Z,8.75
2023-05-02T07:03:16.170Z,8.71
2023-05-02T07:04:16.189Z,8.66
2023-05-02T07:05:16.143Z,8.68
2023-05-02T07:06:16.170Z,8.69
2023-05-02T07:07:16.123Z,8.73
2023-05-02T07:08:16.103Z,8.72
2023-05-02T07:09:16.101Z,8.73
2023-05-02T07:10:16.074Z,8.76
2023-05-02T07:11:16.090Z,8.79
2023-05-02T07:12:16.051Z,8.69
2023-05-02T07:13:16.034Z,8.72
2023-05-02T07:14:16.022Z,8.79
2023-05-02T07:15:16.002Z,8.84
2023-05-02T07:16:16.045Z,8.81
2023-05-02T07:17:15.998Z,8.76
2023-05-02T07:18:16.024Z,8.76
2023-05-02T07:19:15.978Z,8.75
2023-05-02T07:20:15.963Z,8.79
2023-05-02T07:21:15.947Z,8.76
2023-05-02T07:22:15.924Z,8.81
2023-05-02T07:23:15.907Z,8.84
2023-05-02T07:24:15.898Z,8.88
2023-05-02T07:25:15.877Z,8.94
2023-05-02T07:26:15.890Z,8.93
2023-05-02T07:27:15.863Z,8.93
2023-05-02T07:28:15.839Z,8.94
2023-05-02T07:29:15.822Z,9.01
2023-05-02T07:30:15.821Z,9.05
2023-05-02T07:31:18.270Z,9.12
2023-05-02T07:32:15.840Z,9.20
2023-05-02T07:33:15.867Z,9.21
2023-05-02T07:34:15.776Z,9.20
2023-05-02T07:35:15.765Z,9.21
2023-05-02T07:36:15.756Z,9.18
2023-05-02T07:37:15.726Z,9.15
2023-05-02T07:38:15.714Z,9.09
2023-05-02T07:39:15.702Z,9.02
2023-05-02T07:40:15.690Z,8.94
2023-05-02T07:41:15.682Z,8.97
2023-05-02T07:42:15.665Z,8.96
2023-05-02T07:43:15.643Z,8.97
2023-05-02T07:44:15.635Z,9.04
2023-05-02T07:45:15.625Z,9.06
2023-05-02T07:46:15.665Z,9.12
2023-05-02T07:47:15.593Z,9.06
2023-05-02T07:48:15.658Z,8.93
2023-05-02T07:49:15.583Z,8.83
2023-05-02T07:50:15.556Z,8.78
2023-05-02T07:51:15.563Z,8.76
2023-05-02T07:52:15.534Z,8.73
2023-05-02T07:53:15.520Z,8.75
2023-05-02T07:54:15.521Z,8.69
2023-05-02T07:55:15.504Z,8.68
2023-05-02T07:56:15.496Z,8.62
2023-05-02T07:57:15.478Z,8.57
2023-05-02T07:58:15.459Z,8.62
2023-05-02T07:59:15.529Z,8.69
2023-05-02T08:00:15.453Z,8.75
2023-05-02T08:01:15.454Z,8.75
2023-05-02T08:02:15.447Z,8.90
2023-05-02T08:03:15.503Z,8.99
2023-05-02T08:04:15.736Z,9.09
2023-05-02T08:05:15.516Z,9.23
2023-05-02T08:06:15.407Z,9.30
2023-05-02T08:07:15.342Z,9.43
2023-05-02T08:08:15.333Z,9.58
2023-05-02T08:09:15.320Z,9.67
2023-05-02T08:10:15.317Z,9.66
2023-05-02T08:11:15.310Z,9.78
2023-05-02T08:12:15.279Z,9.83
2023-05-02T08:13:15.263Z,9.81
2023-05-02T08:14:15.259Z,9.76
2023-05-02T08:15:15.235Z,9.82
2023-05-02T08:16:15.309Z,9.79
2023-05-02T08:17:15.209Z,9.83
2023-05-02T08:18:15.283Z,9.81
2023-05-02T08:19:15.180Z,9.81
2023-05-02T08:20:15.179Z,9.81
2023-05-02T08:21:15.175Z,9.73
2023-05-02T08:22:15.159Z,9.78
2023-05-02T08:23:15.131Z,9.85
2023-05-02T08:24:15.130Z,9.88
2023-05-02T08:25:15.101Z,9.94
2023-05-02T08:26:15.133Z,10.06
2023-05-02T08:27:15.072Z,10.17
2023-05-02T08:28:15.072Z,10.09
2023-05-02T08:29:15.060Z,10.03
2023-05-02T08:30:15.044Z,9.78
2023-05-02T08:31:15.061Z,9.56
2023-05-02T08:32:15.084Z,9.48
2023-05-02T08:33:15.052Z,9.28
2023-05-02T08:34:15.000Z,9.20
2023-05-02T08:35:14.971Z,9.23
2023-05-02T08:36:14.991Z,9.21
2023-05-02T08:37:14.954Z,9.15
2023-05-02T08:38:14.950Z,9.01
2023-05-02T08:39:14.924Z,9.01
2023-05-02T08:40:14.914Z,9.05
2023-05-02T08:41:14.912Z,9.10
2023-05-02T08:42:14.936Z,8.99
2023-05-02T08:43:14.868Z,8.93
2023-05-02T08:44:14.863Z,8.93
2023-05-02T08:45:16.559Z,8.86
2023-05-02T08:46:14.852Z,8.86
2023-05-02T08:47:15.133Z,8.99
2023-05-02T08:48:14.831Z,9.15
2023-05-02T08:49:14.796Z,9.27
2023-05-02T08:50:14.793Z,9.52
2023-05-02T08:51:14.788Z,9.79
2023-05-02T08:52:14.757Z,10.06
2023-05-02T08:53:14.779Z,10.39
2023-05-02T08:54:14.741Z,10.66
2023-05-02T08:55:14.717Z,10.99
2023-05-02T08:56:14.730Z,11.17
2023-05-02T08:57:14.708Z,11.41
2023-05-02T08:58:15.519Z,11.46
2023-05-02T08:59:14.799Z,11.29
2023-05-02T09:00:14.674Z,11.46
2023-05-02T09:01:14.690Z,11.46
2023-05-02T09:02:14.635Z,11.68
2023-05-02T09:03:14.638Z,11.86
2023-05-02T09:04:14.630Z,11.83
2023-05-02T09:05:14.598Z,11.86
2023-05-02T09:06:14.646Z,11.82
2023-05-02T09:07:14.568Z,11.70
2023-05-02T09:08:14.552Z,11.57
2023-05-02T09:09:14.542Z,11.36
2023-05-02T09:10:14.519Z,11.11
2023-05-02T09:11:14.532Z,10.80
2023-05-02T09:12:14.498Z,10.68
2023-05-02T09:13:14.493Z,10.70
2023-05-02T09:14:14.475Z,10.71
2023-05-02T09:15:14.457Z,10.62
2023-05-02T09:16:14.504Z,10.40
2023-05-02T09:17:14.436Z,10.33
2023-05-02T09:18:14.416Z,10.33
2023-05-02T09:19:14.475Z,10.34
2023-05-02T09:20:14.396Z,10.22
2023-05-02T09:21:14.383Z,10.21
2023-05-02T09:22:14.387Z,10.19
2023-05-02T09:23:14.355Z,10.21
2023-05-02T09:24:14.347Z,10.26
2023-05-02T09:25:14.343Z,10.26
2023-05-02T09:26:14.320Z,10.19
2023-05-02T09:27:14.326Z,10.15
2023-05-02T09:28:14.323Z,10.17
2023-05-02T09:29:14.280Z,10.10
2023-05-02T09:30:14.264Z,10.03
2023-05-02T09:31:15.519Z,10.07
2023-05-02T09:32:14.324Z,10.06
2023-05-02T09:33:14.327Z,10.07
2023-05-02T09:34:14.219Z,10.17
2023-05-02T09:35:14.218Z,10.33
2023-05-02T09:36:14.333Z,10.55
2023-05-02T09:37:14.211Z,10.88
2023-05-02T09:38:14.162Z,11.16
2023-05-02T09:39:14.159Z,11.16
2023-05-02T09:40:14.136Z,11.25
2023-05-02T09:41:14.161Z,11.24
2023-05-02T09:42:14.114Z,11.62
2023-05-02T09:43:14.093Z,11.83
2023-05-02T09:44:14.084Z,11.93
2023-05-02T09:45:14.090Z,11.78
2023-05-02T09:46:14.107Z,11.44
2023-05-02T09:47:14.045Z,11.38
2023-05-02T09:48:14.026Z,11.44
2023-05-02T09:49:14.019Z,11.59
2023-05-02T09:50:14.031Z,11.62
2023-05-02T09:51:14.013Z,11.59
2023-05-02T09:52:13.981Z,11.59
2023-05-02T09:53:13.984Z,11.80
2023-05-02T09:54:13.968Z,12.09
2023-05-02T09:55:13.945Z,12.26
2023-05-02T09:56:13.941Z,12.49
2023-05-02T09:57:13.922Z,12.52
2023-05-02T09:58:13.898Z,12.30
2023-05-02T09:59:13.892Z,12.30
2023-05-02T10:00:13.883Z,12.45
2023-05-02T10:01:13.943Z,12.34
2023-05-02T10:02:13.849Z,12.41
2023-05-02T10:03:13.893Z,12.56
2023-05-02T10:04:14.248Z,12.63
2023-05-02T10:05:13.813Z,12.79
2023-05-02T10:06:13.837Z,12.85
2023-05-02T10:07:13.787Z,12.74
2023-05-02T10:08:13.772Z,12.70
2023-05-02T10:09:18.185Z,12.77
2023-05-02T10:10:14.746Z,12.85
2023-05-02T10:11:13.760Z,12.88
2023-05-02T10:12:13.735Z,12.77
2023-05-02T10:13:13.711Z,12.81
2023-05-02T10:14:13.691Z,12.84
2023-05-02T10:15:13.679Z,12.87
2023-05-02T10:16:13.699Z,12.93
2023-05-02T10:17:13.654Z,12.88
2023-05-02T10:18:13.689Z,12.87
2023-05-02T10:19:13.634Z,12.87
2023-05-02T10:20:13.623Z,12.52
2023-05-02T10:21:13.622Z,12.12
2023-05-02T10:22:13.734Z,11.89
2023-05-02T10:23:13.572Z,11.85
2023-05-02T10:24:13.593Z,11.83
2023-05-02T10:25:13.561Z,11.90
2023-05-02T10:26:13.552Z,11.97
2023-05-02T10:27:13.519Z,12.04
2023-05-02T10:28:13.507Z,11.86
2023-05-02T10:29:13.499Z,11.82
2023-05-02T10:30:13.489Z,11.67
2023-05-02T10:31:13.500Z,11.59
2023-05-02T10:32:13.468Z,11.74
2023-05-02T10:33:13.534Z,11.94
2023-05-02T10:34:13.444Z,12.09
2023-05-02T10:35:13.437Z,12.13
2023-05-02T10:36:13.423Z,11.89
2023-05-02T10:37:13.448Z,11.68
2023-05-02T10:38:13.380Z,11.72
2023-05-02T10:39:13.363Z,11.86
2023-05-02T10:40:13.362Z,12.04
2023-05-02T10:41:13.351Z,12.09
2023-05-02T10:42:13.328Z,12.24
2023-05-02T10:43:13.318Z,12.26
2023-05-02T10:44:13.316Z,12.41
2023-05-02T10:45:13.284Z,12.56
2023-05-02T10:46:13.346Z,12.69
2023-05-02T10:47:13.261Z,12.93
2023-05-02T10:48:13.338Z,13.20
2023-05-02T10:49:13.247Z,13.43
2023-05-02T10:50:13.223Z,13.74
2023-05-02T10:51:13.222Z,14.35
2023-05-02T10:52:13.203Z,14.28
2023-05-02T10:53:13.177Z,13.95
2023-05-02T10:54:13.168Z,13.63
2023-05-02T10:55:13.156Z,13.12
2023-05-02T10:56:13.164Z,12.66
2023-05-02T10:57:13.130Z,12.57
2023-05-02T10:58:13.128Z,12.38
2023-05-02T10:59:13.115Z,12.12
2023-05-02T11:00:13.109Z,12.12
2023-05-02T11:01:13.138Z,12.38
2023-05-02T11:02:13.101Z,12.60
2023-05-02T11:03:13.164Z,12.88
2023-05-02T11:04:13.050Z,13.17
2023-05-02T11:05:13.024Z,13.40
2023-05-02T11:06:13.048Z,13.51
2023-05-02T11:07:13.020Z,13.55
2023-05-02T11:08:12.989Z,13.25
2023-05-02T11:09:12.977Z,12.87
2023-05-02T11:10:12.974Z,12.77
2023-05-02T11:11:12.962Z,12.88
2023-05-02T11:12:12.939Z,12.97
2023-05-02T11:13:12.931Z,13.03
2023-05-02T11:14:13.964Z,13.17
2023-05-02T11:15:12.920Z,13.32
2023-05-02T11:16:12.961Z,13.30
2023-05-02T11:17:12.866Z,13.37
2023-05-02T11:18:13.318Z,13.52
2023-05-02T11:19:12.850Z,13.43
2023-05-02T11:20:12.858Z,13.51
2023-05-02T11:21:12.831Z,13.44
2023-05-02T11:22:12.819Z,13.89
2023-05-02T11:23:12.800Z,14.06
2023-05-02T11:24:12.789Z,13.71
2023-05-02T11:25:12.765Z,13.22
2023-05-02T11:26:12.782Z,12.74
2023-05-02T11:27:12.750Z,12.71
2023-05-02T11:28:12.743Z,12.74
2023-05-02T11:29:12.710Z,12.67
2023-05-02T11:30:12.854Z,12.64
2023-05-02T11:31:12.712Z,12.74
2023-05-02T11:32:12.737Z,12.89
2023-05-02T11:33:12.724Z,13.04
2023-05-02T11:34:12.669Z,13.49
2023-05-02T11:35:12.648Z,13.87
2023-05-02T11:36:12.787Z,13.77
2023-05-02T11:37:12.619Z,13.83
2023-05-02T11:38:12.658Z,13.91
2023-05-02T11:39:12.588Z,13.96
2023-05-02T11:40:12.639Z,14.34
2023-05-02T11:41:12.608Z,14.49
2023-05-02T11:42:12.551Z,14.31
2023-05-02T11:43:12.556Z,14.14
2023-05-02T11:44:12.575Z,13.98
2023-05-02T11:45:12.507Z,13.96
2023-05-02T11:46:12.517Z,13.89
2023-05-02T11:47:12.483Z,13.55
2023-05-02T11:48:12.505Z,13.20
2023-05-02T11:49:12.745Z,13.32
2023-05-02T11:50:12.534Z,13.47
2023-05-02T11:51:12.459Z,14.02
2023-05-02T11:52:12.426Z,15.12
2023-05-02T11:53:12.407Z,15.75
2023-05-02T11:54:12.397Z,16.03
2023-05-02T11:55:12.390Z,15.97
2023-05-02T11:56:12.397Z,16.25
2023-05-02T11:57:12.355Z,16.77
2023-05-02T11:58:12.343Z,16.59
2023-05-02T11:59:12.330Z,16.26
2023-05-02T12:00:12.357Z,15.99
2023-05-02T12:01:12.318Z,15.74
2023-05-02T12:02:12.364Z,15.21
2023-05-02T12:03:12.386Z,14.84
2023-05-02T12:04:12.272Z,14.56
2023-05-02T12:05:12.284Z,14.38
2023-05-02T12:06:12.788Z,14.35
2023-05-02T12:07:12.439Z,14.25
2023-05-02T12:08:12.214Z,14.09
2023-05-02T12:09:12.204Z,14.04
2023-05-02T12:10:12.222Z,14.20
2023-05-02T12:11:12.185Z,14.71
2023-05-02T12:12:12.172Z,15.23
2023-05-02T12:13:12.156Z,15.19
2023-05-02T12:14:12.137Z,15.09
2023-05-02T12:15:12.121Z,14.99
2023-05-02T12:16:12.146Z,14.93
2023-05-02T12:17:12.102Z,14.81
2023-05-02T12:18:12.157Z,14.39
2023-05-02T12:19:12.070Z,13.80
2023-05-02T12:20:12.118Z,13.76
2023-05-02T12:21:12.060Z,14.29
2023-05-02T12:22:12.045Z,14.28
2023-05-02T12:23:12.020Z,13.94
2023-05-02T12:24:12.008Z,14.10
2023-05-02T12:25:12.030Z,14.29
2023-05-02T12:26:12.002Z,14.49
2023-05-02T12:27:11.972Z,14.60
2023-05-02T12:28:11.955Z,14.81
2023-05-02T12:29:11.940Z,14.95
2023-05-02T12:30:11.939Z,14.84
2023-05-02T12:31:11.951Z,14.94
2023-05-02T12:32:11.915Z,14.91
2023-05-02T12:33:11.973Z,14.81
2023-05-02T12:34:11.875Z,14.80
2023-05-02T12:35:11.871Z,14.60
2023-05-02T12:36:11.870Z,14.56
2023-05-02T12:37:11.924Z,14.64
2023-05-02T12:38:11.824Z,14.65
2023-05-02T12:39:11.815Z,14.78
2023-05-02T12:40:11.797Z,14.98
2023-05-02T12:41:11.793Z,14.68
2023-05-02T12:42:11.812Z,14.67
2023-05-02T12:43:11.756Z,14.62
2023-05-02T12:44:11.760Z,14.83
2023-05-02T12:45:11.727Z,15.08
2023-05-02T12:46:11.733Z,15.17
2023-05-02T12:47:11.738Z,15.61
2023-05-02T12:48:11.757Z,15.31
2023-05-02T12:49:11.678Z,15.85
2023-05-02T12:50:11.675Z,16.09
2023-05-02T12:51:11.669Z,15.92
2023-05-02T12:52:11.645Z,15.60
2023-05-02T12:53:11.635Z,15.13
2023-05-02T12:54:11.624Z,14.88
2023-05-02T12:55:11.600Z,15.63
2023-05-02T12:56:11.616Z,15.79
2023-05-02T12:57:11.578Z,15.72
2023-05-02T12:58:11.564Z,15.68
2023-05-02T12:59:11.553Z,16.09
2023-05-02T13:00:11.556Z,15.86
2023-05-02T13:01:11.569Z,15.64
2023-05-02T13:02:11.515Z,15.56
2023-05-02T13:03:11.575Z,15.67
2023-05-02T13:04:11.508Z,15.28
2023-05-02T13:05:11.491Z,14.98
2023-05-02T13:06:11.545Z,14.83
2023-05-02T13:07:11.451Z,14.62
2023-05-02T13:08:11.437Z,14.54
2023-05-02T13:09:11.419Z,14.53
2023-05-02T13:10:11.410Z,14.94
2023-05-02T13:11:11.404Z,14.95
2023-05-02T13:12:11.383Z,14.80
2023-05-02T13:13:11.376Z,14.87
2023-05-02T13:14:11.366Z,15.35
2023-05-02T13:15:11.380Z,15.94
2023-05-02T13:16:11.506Z,16.16
2023-05-02T13:17:11.419Z,16.44
2023-05-02T13:18:11.399Z,16.52
2023-05-02T13:19:11.302Z,17.06
2023-05-02T13:20:11.285Z,17.55
2023-05-02T13:21:11.272Z,16.89
2023-05-02T13:22:11.257Z,17.18
2023-05-02T13:23:11.233Z,16.25
2023-05-02T13:24:11.231Z,15.61
2023-05-02T13:25:11.233Z,15.46
2023-05-02T13:26:11.215Z,15.48
2023-05-02T13:27:11.185Z,16.16
2023-05-02T13:28:11.173Z,16.31
2023-05-02T13:29:11.159Z,16.62
2023-05-02T13:30:11.621Z,17.26
2023-05-02T13:31:11.204Z,18.15
2023-05-02T13:32:11.122Z,18.39
2023-05-02T13:33:11.101Z,18.19
2023-05-02T13:34:11.100Z,16.92
2023-05-02T13:35:11.078Z,16.92
2023-05-02T13:36:11.085Z,17.47
2023-05-02T13:37:11.051Z,17.79
2023-05-02T13:38:11.044Z,17.40
2023-05-02T13:39:11.033Z,16.99
2023-05-02T13:40:11.022Z,17.55
2023-05-02T13:41:11.021Z,17.46
2023-05-02T13:42:10.989Z,17.33
2023-05-02T13:43:10.976Z,17.51
2023-05-02T13:44:10.972Z,17.50
2023-05-02T13:45:10.961Z,17.53
2023-05-02T13:46:10.982Z,17.69
2023-05-02T13:47:10.923Z,17.74
2023-05-02T13:48:11.008Z,17.92
2023-05-02T13:49:10.917Z,18.36
2023-05-02T13:50:10.898Z,18.21
2023-05-02T13:51:10.883Z,17.38
2023-05-02T13:52:10.875Z,16.83
2023-05-02T13:53:10.845Z,16.93
2023-05-02T13:54:10.834Z,17.35
2023-05-02T13:55:10.832Z,17.07
2023-05-02T13:56:10.825Z,17.22
2023-05-02T13:57:10.797Z,17.89
2023-05-02T13:58:10.787Z,18.55
2023-05-02T13:59:11.376Z,19.17
2023-05-02T14:00:10.765Z,19.10
2023-05-02T14:01:10.797Z,18.95
2023-05-02T14:02:10.757Z,18.00
2023-05-02T14:03:10.797Z,17.54
2023-05-02T14:04:10.998Z,17.22
2023-05-02T14:05:10.709Z,16.75
2023-05-02T14:06:10.745Z,16.65
2023-05-02T14:07:10.662Z,16.26
2023-05-02T14:08:10.655Z,16.11
2023-05-02T14:09:10.656Z,15.88
2023-05-02T14:10:10.634Z,15.30
2023-05-02T14:11:10.653Z,15.45
2023-05-02T14:12:10.629Z,16.12
2023-05-02T14:13:10.591Z,16.78
2023-05-02T14:14:10.598Z,17.43
2023-05-02T14:15:10.572Z,17.95
2023-05-02T14:16:10.584Z,18.47
2023-05-02T14:17:10.562Z,18.21
2023-05-02T14:18:10.582Z,17.18
2023-05-02T14:19:10.517Z,17.18
2023-05-02T14:20:10.731Z,17.36
2023-05-02T14:21:10.490Z,17.06
2023-05-02T14:22:10.477Z,16.62
2023-05-02T14:23:10.458Z,15.93
2023-05-02T14:24:10.467Z,15.39
2023-05-02T14:25:10.441Z,15.84
2023-05-02T14:26:10.423Z,15.64
2023-05-02T14:27:10.405Z,15.56
2023-05-02T14:28:10.428Z,15.56
2023-05-02T14:29:10.392Z,15.85
2023-05-02T14:30:10.382Z,16.65
2023-05-02T14:31:10.391Z,16.95
2023-05-02T14:32:10.391Z,17.10
2023-05-02T14:33:10.358Z,16.85
2023-05-02T14:34:10.323Z,16.78
2023-05-02T14:35:10.384Z,17.00
2023-05-02T14:36:10.285Z,16.55
2023-05-02T14:37:10.275Z,16.06
2023-05-02T14:38:10.287Z,16.41
2023-05-02T14:39:10.247Z,16.81
2023-05-02T14:40:10.261Z,17.44
2023-05-02T14:41:10.220Z,17.99
2023-05-02T14:42:10.224Z,18.40
2023-05-02T14:43:10.449Z,17.74
2023-05-02T14:44:10.187Z,17.08
2023-05-02T14:45:10.197Z,16.65
2023-05-02T14:46:10.170Z,16.98
2023-05-02T14:47:10.211Z,17.79
2023-05-02T14:48:11.060Z,18.06
2023-05-02T14:49:10.113Z,18.09
2023-05-02T14:50:10.128Z,18.36
2023-05-02T14:51:10.089Z,18.68
2023-05-02T14:52:10.083Z,18.73
2023-05-02T14:53:10.066Z,18.64
2023-05-02T14:54:10.055Z,18.39
2023-05-02T14:55:10.051Z,18.36
2023-05-02T14:56:10.030Z,18.28
2023-05-02T14:57:10.026Z,18.58
2023-05-02T14:58:10.031Z,18.91
2023-05-02T14:59:10.888Z,18.31
2023-05-02T15:00:10.153Z,16.73
2023-05-02T15:01:09.988Z,15.59
2023-05-02T15:02:10.017Z,15.12
2023-05-02T15:03:10.105Z,14.99
2023-05-02T15:04:10.356Z,14.91
2023-05-02T15:05:09.961Z,14.84
2023-05-02T15:06:09.971Z,14.86
2023-05-02T15:07:09.939Z,14.90
2023-05-02T15:08:09.878Z,14.87
2023-05-02T15:09:09.861Z,14.83
2023-05-02T15:10:09.864Z,14.80
2023-05-02T15:11:09.837Z,14.80
2023-05-02T15:12:09.819Z,14.86
2023-05-02T15:13:09.818Z,14.83
2023-05-02T15:14:09.802Z,14.78
2023-05-02T15:15:09.795Z,14.75
2023-05-02T15:16:09.816Z,14.81
2023-05-02T15:17:10.053Z,15.46
2023-05-02T15:18:09.808Z,16.37
2023-05-02T15:19:09.727Z,17.11
2023-05-02T15:20:09.741Z,17.70
2023-05-02T15:21:09.699Z,18.24
2023-05-02T15:22:09.686Z,18.68
2023-05-02T15:23:09.680Z,18.29
2023-05-02T15:24:09.670Z,18.64
2023-05-02T15:25:09.680Z,19.24
2023-05-02T15:26:09.644Z,18.77
2023-05-02T15:27:09.657Z,17.92
2023-05-02T15:28:09.615Z,17.17
2023-05-02T15:29:09.599Z,16.03
2023-05-02T15:30:09.611Z,15.41
2023-05-02T15:31:09.573Z,14.99
2023-05-02T15:32:09.621Z,15.41
2023-05-02T15:33:09.702Z,16.03
2023-05-02T15:34:09.545Z,16.78
2023-05-02T15:35:09.536Z,17.50
2023-05-02T15:36:09.522Z,17.95
2023-05-02T15:37:09.505Z,18.15
2023-05-02T15:38:09.499Z,18.25
2023-05-02T15:39:09.478Z,18.61
2023-05-02T15:40:09.564Z,18.62
2023-05-02T15:41:09.450Z,18.65
2023-05-02T15:42:09.442Z,19.02
2023-05-02T15:43:09.429Z,19.15
2023-05-02T15:44:09.424Z,19.10
2023-05-02T15:45:09.414Z,19.06
2023-05-02T15:46:09.409Z,19.23
2023-05-02T15:47:09.380Z,19.42
2023-05-02T15:48:09.413Z,19.50
2023-05-02T15:49:09.348Z,19.50
2023-05-02T15:50:09.350Z,19.68
2023-05-02T15:51:09.330Z,19.94
2023-05-02T15:52:09.316Z,20.23
2023-05-02T15:53:09.305Z,20.15
2023-05-02T15:54:09.292Z,20.23
2023-05-02T15:55:09.284Z,20.24
2023-05-02T15:56:09.261Z,20.13
2023-05-02T15:57:09.255Z,19.72
2023-05-02T15:58:09.242Z,19.53
2023-05-02T15:59:09.218Z,19.76
2023-05-02T16:00:09.221Z,19.91
2023-05-02T16:01:09.239Z,19.95
2023-05-02T16:02:09.198Z,19.20
2023-05-02T16:03:09.219Z,19.29
2023-05-02T16:04:09.233Z,19.35
2023-05-02T16:05:09.161Z,19.43
2023-05-02T16:06:09.158Z,19.46
2023-05-02T16:07:09.112Z,19.11
2023-05-02T16:08:09.122Z,18.40
2023-05-02T16:09:09.091Z,17.53
2023-05-02T16:10:09.113Z,16.95
2023-05-02T16:11:09.062Z,16.56
2023-05-02T16:12:09.057Z,16.42
2023-05-02T16:13:09.040Z,16.73
2023-05-02T16:14:09.037Z,17.18
2023-05-02T16:15:09.027Z,17.66
2023-05-02T16:16:09.032Z,17.89
2023-05-02T16:17:08.995Z,18.17
2023-05-02T16:18:09.011Z,17.48
2023-05-02T16:19:08.963Z,16.27
2023-05-02T16:20:10.036Z,15.59
2023-05-02T16:21:08.944Z,14.72
2023-05-02T16:22:08.927Z,14.44
2023-05-02T16:23:08.921Z,14.24
2023-05-02T16:24:08.898Z,13.95
2023-05-02T16:25:08.913Z,13.79
2023-05-02T16:26:08.871Z,13.74
2023-05-02T16:27:08.863Z,13.79
2023-05-02T16:28:08.858Z,14.01
2023-05-02T16:29:08.846Z,14.81
2023-05-02T16:30:08.824Z,15.43
2023-05-02T16:31:08.847Z,15.89
2023-05-02T16:32:08.809Z,16.34
2023-05-02T16:33:08.834Z,16.68
2023-05-02T16:34:08.798Z,16.80
2023-05-02T16:35:08.759Z,16.92
2023-05-02T16:36:08.750Z,17.04
2023-05-02T16:37:08.742Z,16.95
2023-05-02T16:38:08.736Z,17.07
2023-05-02T16:39:08.720Z,17.25
2023-05-02T16:40:08.842Z,17.47
2023-05-02T16:41:08.696Z,17.81
2023-05-02T16:42:08.694Z,18.10
2023-05-02T16:43:08.678Z,17.97
2023-05-02T16:44:08.655Z,17.79
2023-05-02T16:45:08.640Z,17.78
2023-05-02T16:46:08.624Z,17.92
2023-05-02T16:47:08.692Z,18.00
2023-05-02T16:48:08.605Z,17.99
2023-05-02T16:49:08.634Z,18.04
2023-05-02T16:50:08.573Z,17.47
2023-05-02T16:51:08.568Z,16.75
2023-05-02T16:52:08.539Z,16.40
2023-05-02T16:53:08.525Z,16.23
2023-05-02T16:54:08.679Z,15.57
2023-05-02T16:55:08.509Z,15.03
2023-05-02T16:56:08.488Z,14.72
2023-05-02T16:57:08.499Z,14.56
2023-05-02T16:58:08.458Z,14.47
2023-05-02T16:59:08.466Z,14.38
2023-05-02T17:00:08.442Z,14.29
2023-05-02T17:01:08.438Z,14.12
2023-05-02T17:02:08.437Z,14.02
2023-05-02T17:03:08.805Z,13.99
2023-05-02T17:04:08.476Z,14.01
2023-05-02T17:05:08.376Z,13.96
2023-05-02T17:06:08.362Z,13.96
2023-05-02T17:07:08.342Z,13.96
2023-05-02T17:08:09.172Z,13.89
2023-05-02T17:09:08.334Z,13.77
2023-05-02T17:10:08.297Z,13.65
2023-05-02T17:11:08.299Z,13.59
2023-05-02T17:12:08.296Z,13.59